Time;durP1;ratioP1;P1;durP2;ratioP2;P2;SDS_P1;SDS_P2;PMS_P1;PMS_P2;Temp;Humidity;BMP_temperature;BMP_pressure;BME280_temperature;BME280_humidity;BME280_pressure;Samples;Min_cycle;Max_cycle;Signal;HPM_P1;HPM_P2
2021/10/08 00:00:39;;;;;;;16.40;11.05;;;26.50;99.90;;;;;;1782677;78;21241;-87
2021/10/08 00:03:10;;;;;;;15.48;11.38;;;26.50;99.90;;;;;;1816235;77;21537;-86
2021/10/08 00:05:41;;;;;;;13.85;10.95;;;26.50;99.90;;;;;;1841410;76;21200;-87
2021/10/08 00:08:12;;;;;;;17.60;11.70;;;26.50;99.90;;;;;;1783116;79;21097;-86
2021/10/08 00:10:43;;;;;;;15.53;12.23;;;26.50;99.90;;;;;;1801893;78;21104;-86
2021/10/08 00:13:14;;;;;;;14.95;11.10;;;26.50;99.90;;;;;;1825214;77;21348;-86
2021/10/08 00:15:45;;;;;;;18.12;12.03;;;26.50;99.90;;;;;;1796041;78;21181;-86
2021/10/08 00:18:15;;;;;;;18.15;11.78;;;26.50;99.90;;;;;;1815650;78;21162;-87
2021/10/08 00:20:49;;;;;;;16.75;12.23;;;26.50;99.90;;;;;;1816128;77;21107;-87
2021/10/08 00:23:19;;;;;;;15.20;11.60;;;26.50;99.90;;;;;;1809611;77;21228;-87
2021/10/08 00:25:50;;;;;;;15.20;11.55;;;26.50;99.90;;;;;;1781860;78;21788;-86
2021/10/08 00:28:20;;;;;;;16.02;11.15;;;26.50;99.90;;;;;;1816958;77;21095;-88
2021/10/08 00:30:52;;;;;;;15.45;11.90;;;26.50;99.90;;;;;;1820958;77;21563;-87
2021/10/08 00:33:23;;;;;;;14.35;11.48;;;26.50;99.90;;;;;;1776018;78;21558;-86
2021/10/08 00:35:54;;;;;;;18.25;12.07;;;26.50;99.90;;;;;;1802787;76;21617;-86
2021/10/08 00:38:25;;;;;;;18.55;11.33;;;26.60;99.90;;;;;;1812503;78;21233;-87
2021/10/08 00:40:56;;;;;;;15.18;11.45;;;26.60;99.90;;;;;;1790365;78;21128;-87
2021/10/08 00:43:28;;;;;;;18.17;11.50;;;26.60;99.90;;;;;;1787503;78;21598;-89
2021/10/08 00:46:01;;;;;;;18.65;11.70;;;26.60;99.90;;;;;;1821208;77;21121;-86
2021/10/08 00:48:31;;;;;;;18.05;11.28;;;26.60;99.90;;;;;;1820394;77;21313;-87
2021/10/08 00:51:01;;;;;;;17.60;11.12;;;26.70;99.90;;;;;;1821016;77;21533;-89
2021/10/08 00:53:32;;;;;;;16.32;10.80;;;26.70;99.90;;;;;;1858272;75;21112;-88
2021/10/08 00:56:03;;;;;;;15.93;10.95;;;26.70;99.90;;;;;;1852459;76;21108;-88
2021/10/08 00:58:35;;;;;;;15.98;10.85;;;26.80;99.90;;;;;;1842901;76;21123;-87
2021/10/08 01:01:07;;;;;;;13.20;10.58;;;26.80;99.90;;;;;;1793271;78;21262;-85
2021/10/08 01:03:38;;;;;;;14.90;10.63;;;26.80;99.90;;;;;;1803578;78;21184;-86
2021/10/08 01:06:13;;;;;;;14.80;10.72;;;26.80;99.90;;;;;;1797594;78;21152;-86
2021/10/08 01:08:44;;;;;;;13.03;10.48;;;26.90;99.90;;;;;;1826569;77;21160;-89
2021/10/08 01:11:19;;;;;;;15.70;11.33;;;26.90;99.90;;;;;;1825288;77;21483;-89
2021/10/08 01:13:48;;;;;;;19.82;11.85;;;27.00;99.90;;;;;;1817268;77;21171;-88
2021/10/08 01:16:22;;;;;;;16.62;11.20;;;27.00;99.90;;;;;;1822287;77;21592;-89
2021/10/08 01:18:53;;;;;;;17.57;10.45;;;27.10;99.90;;;;;;1822595;77;22900;-91
2021/10/08 01:21:24;;;;;;;15.58;11.80;;;27.10;99.90;;;;;;1822546;77;21177;-89
2021/10/08 01:23:57;;;;;;;17.52;11.03;;;27.20;99.90;;;;;;1829304;77;21100;-88
2021/10/08 01:26:27;;;;;;;14.55;10.75;;;27.20;99.90;;;;;;1825815;77;21098;-89
2021/10/08 01:28:58;;;;;;;14.25;11.57;;;27.20;99.90;;;;;;1837703;75;21490;-89
2021/10/08 01:31:28;;;;;;;20.92;11.63;;;27.30;99.90;;;;;;1858533;75;22610;-89
2021/10/08 01:33:59;;;;;;;16.85;12.03;;;27.30;99.90;;;;;;1856159;76;21696;-88
2021/10/08 01:36:30;;;;;;;16.75;12.25;;;27.40;99.90;;;;;;1852454;75;21079;-90
2021/10/08 01:39:01;;;;;;;17.02;11.53;;;27.40;99.90;;;;;;1850677;75;21545;-86
2021/10/08 01:41:32;;;;;;;16.00;11.38;;;27.40;99.90;;;;;;1803464;76;21110;-89
2021/10/08 01:44:03;;;;;;;18.27;11.68;;;27.50;99.90;;;;;;1810838;78;21118;-87
2021/10/08 01:46:34;;;;;;;17.30;11.65;;;27.50;99.90;;;;;;1794326;78;21243;-89
2021/10/08 01:49:05;;;;;;;16.32;12.03;;;27.50;99.90;;;;;;1825386;75;21162;-90
2021/10/08 01:51:36;;;;;;;19.62;11.70;;;27.60;99.90;;;;;;1820651;78;21165;-87
2021/10/08 01:54:06;;;;;;;17.67;11.43;;;27.60;99.90;;;;;;1810782;78;21342;-88
2021/10/08 01:59:22;;;;;;;15.55;12.20;;;27.60;99.90;;;;;;2053650;69;27870;-91
2021/10/08 02:01:53;;;;;;;19.60;11.78;;;27.70;99.90;;;;;;2008457;70;21520;-91
2021/10/08 02:04:25;;;;;;;15.38;11.35;;;27.70;99.90;;;;;;2013697;70;21205;-91
2021/10/08 02:06:58;;;;;;;19.00;12.23;;;27.80;99.90;;;;;;2018142;70;21049;-89
2021/10/08 02:09:29;;;;;;;15.03;12.18;;;27.80;99.90;;;;;;1986666;71;21064;-87
2021/10/08 02:12:03;;;;;;;15.63;12.63;;;27.80;99.90;;;;;;1982597;71;21563;-90
2021/10/08 02:14:35;;;;;;;18.37;12.20;;;27.90;99.90;;;;;;1974696;71;21264;-88
2021/10/08 02:17:26;;;;;;;17.05;11.50;;;28.00;99.90;;;;;;1975421;71;21097;-88
2021/10/08 02:19:53;;;;;;;18.37;11.35;;;28.10;99.90;;;;;;1978887;71;21062;-88
2021/10/08 02:22:27;;;;;;;15.93;11.95;;;28.10;99.80;;;;;;1974305;71;21538;-89
2021/10/08 02:25:00;;;;;;;17.17;10.95;;;28.10;99.90;;;;;;1907054;73;21134;-86
2021/10/08 02:27:33;;;;;;;16.30;11.75;;;28.10;99.80;;;;;;1951933;72;21508;-87
2021/10/08 02:30:15;;;;;;;17.05;12.10;;;28.20;99.80;;;;;;1964869;72;21086;-88
2021/10/08 02:32:48;;;;;;;15.93;12.30;;;28.30;99.60;;;;;;1953625;72;21145;-87
2021/10/08 02:35:40;;;;;;;15.70;11.83;;;28.30;99.80;;;;;;2007831;70;21508;-87
2021/10/08 02:38:09;;;;;;;17.17;12.25;;;28.30;99.50;;;;;;1999799;70;21513;-76
2021/10/08 02:40:40;;;;;;;15.83;11.35;;;28.30;99.20;;;;;;2005270;70;21964;-75
2021/10/08 02:43:11;;;;;;;14.78;12.18;;;28.30;99.30;;;;;;1994693;70;21605;-75
2021/10/08 02:45:43;;;;;;;15.53;12.28;;;28.40;99.60;;;;;;1977159;71;21083;-75
2021/10/08 02:48:14;;;;;;;16.50;11.83;;;28.40;99.60;;;;;;1973576;73;21071;-76
2021/10/08 02:50:46;;;;;;;19.20;12.60;;;28.50;99.60;;;;;;1959670;72;21155;-74
2021/10/08 02:53:17;;;;;;;20.12;12.40;;;28.40;99.60;;;;;;1974704;71;21052;-75
2021/10/08 02:55:48;;;;;;;19.90;12.98;;;28.50;99.90;;;;;;1969808;71;21127;-74
2021/10/08 02:58:19;;;;;;;15.78;12.80;;;28.50;99.40;;;;;;1982469;72;21646;-74
2021/10/08 03:00:50;;;;;;;19.42;13.53;;;28.50;99.50;;;;;;1979550;72;21060;-75
2021/10/08 03:03:21;;;;;;;16.48;12.63;;;28.50;99.50;;;;;;1979244;71;21543;-75
2021/10/08 03:05:52;;;;;;;15.28;12.93;;;28.50;99.50;;;;;;1969088;71;21653;-75
2021/10/08 03:08:23;;;;;;;20.25;14.90;;;28.60;99.50;;;;;;1985579;72;21578;-73
2021/10/08 03:10:54;;;;;;;15.88;12.78;;;28.70;99.30;;;;;;1975560;71;21582;-75
2021/10/08 03:13:25;;;;;;;15.58;12.78;;;28.70;99.40;;;;;;1994783;71;21194;-75
2021/10/08 03:15:56;;;;;;;17.55;12.93;;;28.70;99.60;;;;;;1995958;70;21306;-76
2021/10/08 03:18:27;;;;;;;18.17;13.15;;;28.80;99.60;;;;;;1984934;71;21574;-75
2021/10/08 03:20:58;;;;;;;19.37;14.45;;;28.90;99.40;;;;;;1976942;71;21127;-74
2021/10/08 03:23:29;;;;;;;21.25;14.23;;;28.90;99.50;;;;;;1989606;70;21120;-77
2021/10/08 03:25:59;;;;;;;18.92;13.75;;;29.00;99.40;;;;;;1989677;70;21535;-74
2021/10/08 03:28:30;;;;;;;14.80;12.28;;;29.10;99.50;;;;;;1997108;71;21181;-77
2021/10/08 03:31:01;;;;;;;15.45;12.95;;;29.20;99.40;;;;;;1971611;71;21178;-75
2021/10/08 03:33:32;;;;;;;17.40;13.08;;;29.30;99.00;;;;;;1964666;72;21579;-77
2021/10/08 03:36:03;;;;;;;18.62;13.45;;;29.40;98.80;;;;;;1984620;70;21124;-75
2021/10/08 03:38:35;;;;;;;19.50;12.30;;;29.50;98.10;;;;;;1974091;72;21143;-74
2021/10/08 03:41:13;;;;;;;19.27;11.73;;;29.60;97.50;;;;;;1974978;71;21144;-76
2021/10/08 03:43:40;;;;;;;14.10;11.60;;;29.70;97.70;;;;;;1897278;74;21132;-79
2021/10/08 03:46:14;;;;;;;15.13;11.80;;;29.90;97.50;;;;;;1984484;70;21071;-78
2021/10/08 03:49:01;;;;;;;14.90;11.28;;;30.00;96.30;;;;;;1974117;72;21061;-78
2021/10/08 03:51:21;;;;;;;12.80;11.35;;;30.10;96.00;;;;;;1977320;71;21049;-78
2021/10/08 03:53:53;;;;;;;14.43;11.60;;;30.10;96.10;;;;;;1985622;70;21099;-78
2021/10/08 03:56:26;;;;;;;15.43;11.73;;;30.20;95.90;;;;;;1974129;70;21714;-78
2021/10/08 03:58:58;;;;;;;14.13;12.07;;;30.30;95.80;;;;;;1995168;71;21545;-76
2021/10/08 04:01:29;;;;;;;12.65;10.95;;;30.30;95.60;;;;;;1979176;71;21615;-75
2021/10/08 04:04:01;;;;;;;14.00;10.08;;;30.50;94.20;;;;;;1975314;72;21116;-75
2021/10/08 04:06:38;;;;;;;16.52;10.53;;;30.50;94.30;;;;;;1980380;71;21217;-74
2021/10/08 04:09:07;;;;;;;15.50;10.93;;;30.40;93.60;;;;;;1988477;70;21132;-75
2021/10/08 04:11:39;;;;;;;12.23;9.13;;;30.40;93.50;;;;;;1973622;71;21132;-75
2021/10/08 04:14:10;;;;;;;14.47;9.60;;;30.40;93.50;;;;;;1975049;71;21528;-74
2021/10/08 04:16:41;;;;;;;16.50;9.93;;;30.30;93.60;;;;;;1972456;72;21079;-73
2021/10/08 04:19:12;;;;;;;14.68;10.65;;;30.30;93.50;;;;;;1927410;73;21175;-73
2021/10/08 04:21:44;;;;;;;13.40;9.80;;;30.30;94.10;;;;;;1970656;71;21566;-75
2021/10/08 04:24:15;;;;;;;12.30;10.18;;;30.30;93.80;;;;;;1971633;71;21190;-75
2021/10/08 04:26:48;;;;;;;16.12;9.88;;;30.30;94.00;;;;;;1926145;74;21588;-76
2021/10/08 04:29:19;;;;;;;13.38;9.98;;;30.30;93.50;;;;;;1977007;70;21135;-74
2021/10/08 04:31:50;;;;;;;17.67;10.63;;;30.40;93.80;;;;;;1917666;73;21750;-75
2021/10/08 04:34:20;;;;;;;15.60;10.08;;;30.40;93.60;;;;;;1972943;71;21060;-74
2021/10/08 04:36:51;;;;;;;15.98;9.48;;;30.40;93.80;;;;;;1976535;72;21108;-75
2021/10/08 04:39:22;;;;;;;13.60;9.68;;;30.40;93.70;;;;;;1927035;73;22153;-75
2021/10/08 04:41:52;;;;;;;11.88;9.80;;;30.40;93.50;;;;;;1963816;72;21112;-76
2021/10/08 04:44:23;;;;;;;14.03;10.18;;;30.40;93.60;;;;;;1913294;74;21127;-75
2021/10/08 04:46:54;;;;;;;16.40;9.55;;;30.40;93.50;;;;;;1940581;74;21611;-76
2021/10/08 04:49:25;;;;;;;12.65;9.63;;;30.40;93.20;;;;;;1971651;71;21189;-77
2021/10/08 04:51:56;;;;;;;11.75;9.60;;;30.40;93.50;;;;;;2000994;70;21204;-75
2021/10/08 04:54:27;;;;;;;16.15;9.85;;;30.40;93.40;;;;;;1993054;70;21587;-75
2021/10/08 04:56:58;;;;;;;13.95;9.25;;;30.40;93.20;;;;;;2005877;70;21512;-74
2021/10/08 04:59:29;;;;;;;16.62;10.23;;;30.40;93.50;;;;;;1992201;71;21130;-76
2021/10/08 05:02:00;;;;;;;12.10;9.93;;;30.40;94.00;;;;;;1976454;71;21679;-75
2021/10/08 05:04:31;;;;;;;12.15;10.40;;;30.40;93.60;;;;;;1971256;71;22329;-76
2021/10/08 05:07:01;;;;;;;12.23;10.93;;;30.40;93.90;;;;;;1965886;71;21130;-74
2021/10/08 05:09:32;;;;;;;13.90;10.43;;;30.30;94.10;;;;;;1954958;72;21466;-75
2021/10/08 05:12:04;;;;;;;14.78;10.25;;;30.40;94.90;;;;;;1971539;72;21553;-76
2021/10/08 05:14:34;;;;;;;14.63;10.25;;;30.40;94.90;;;;;;1990544;71;21167;-75
2021/10/08 05:17:05;;;;;;;13.05;9.83;;;30.50;94.40;;;;;;1981072;71;21147;-75
2021/10/08 05:19:36;;;;;;;17.15;11.38;;;30.50;94.10;;;;;;1973807;71;21569;-74
2021/10/08 05:22:07;;;;;;;13.10;10.32;;;30.50;93.80;;;;;;2004099;70;21080;-76
2021/10/08 05:24:41;;;;;;;17.62;10.28;;;30.60;93.90;;;;;;1939325;72;21633;-76
2021/10/08 05:29:54;;;;;;;14.53;10.78;;;30.70;94.90;;;;;;1997385;71;21157;-76
2021/10/08 05:32:25;;;;;;;14.85;10.10;;;30.70;94.60;;;;;;1978041;71;21101;-75
2021/10/08 05:34:55;;;;;;;12.10;9.43;;;30.80;94.20;;;;;;1913813;73;21620;-78
2021/10/08 05:37:26;;;;;;;12.23;10.58;;;30.80;93.80;;;;;;1932793;73;21582;-75
2021/10/08 05:39:57;;;;;;;12.98;9.38;;;30.80;93.80;;;;;;2009408;71;21142;-74
2021/10/08 05:42:28;;;;;;;15.53;10.48;;;30.90;93.80;;;;;;2004368;71;21104;-75
2021/10/08 05:45:00;;;;;;;12.68;9.30;;;31.00;93.60;;;;;;2009789;71;21135;-79
2021/10/08 05:47:31;;;;;;;14.28;9.63;;;31.10;92.70;;;;;;1987324;71;21062;-75
2021/10/08 05:50:02;;;;;;;10.30;9.20;;;31.10;92.50;;;;;;1994171;71;21094;-77
2021/10/08 05:52:33;;;;;;;11.08;9.13;;;31.10;92.50;;;;;;1980177;71;21119;-76
2021/10/08 05:55:04;;;;;;;14.78;9.40;;;31.10;92.50;;;;;;1991514;71;21094;-75
2021/10/08 05:57:39;;;;;;;11.68;9.20;;;31.20;92.60;;;;;;1973046;71;21037;-75
2021/10/08 06:00:08;;;;;;;11.03;8.48;;;31.20;92.10;;;;;;1964154;71;21148;-76
2021/10/08 06:02:40;;;;;;;12.73;9.18;;;31.40;91.80;;;;;;1934208;71;21155;-76
2021/10/08 06:05:11;;;;;;;12.23;8.95;;;31.40;92.10;;;;;;1982214;71;21180;-76
2021/10/08 06:07:43;;;;;;;13.20;8.43;;;31.50;92.00;;;;;;2001113;71;21575;-77
2021/10/08 06:10:13;;;;;;;10.35;8.63;;;31.50;91.20;;;;;;1971553;72;21076;-76
2021/10/08 06:12:44;;;;;;;12.43;8.38;;;31.70;91.00;;;;;;1968814;71;21181;-78
2021/10/08 06:15:21;;;;;;;10.72;7.65;;;31.70;92.30;;;;;;1984382;71;21033;-75
2021/10/08 06:17:53;;;;;;;9.45;7.53;;;32.00;92.00;;;;;;1961095;71;21162;-75
2021/10/08 06:20:27;;;;;;;11.03;8.43;;;31.80;92.00;;;;;;1969038;72;21597;-75
2021/10/08 06:22:58;;;;;;;8.98;7.80;;;31.70;93.80;;;;;;1963947;71;21118;-75
2021/10/08 06:25:29;;;;;;;12.28;8.55;;;32.00;93.20;;;;;;1992352;71;21702;-75
2021/10/08 06:28:00;;;;;;;8.85;7.95;;;31.90;95.70;;;;;;1975618;71;21144;-74
2021/10/08 06:30:31;;;;;;;11.00;7.58;;;31.80;94.80;;;;;;1990936;71;21118;-75
2021/10/08 06:33:03;;;;;;;10.65;7.87;;;31.80;93.40;;;;;;1974272;71;21110;-75
2021/10/08 06:35:34;;;;;;;10.03;7.72;;;31.90;93.80;;;;;;1963951;71;21149;-76
2021/10/08 06:38:05;;;;;;;10.63;8.20;;;31.70;93.40;;;;;;2001910;71;21601;-77
2021/10/08 06:40:36;;;;;;;14.03;8.35;;;31.80;95.20;;;;;;2004724;71;21095;-76
2021/10/08 06:43:07;;;;;;;9.25;7.70;;;31.90;93.60;;;;;;2002837;71;21123;-77
2021/10/08 06:45:39;;;;;;;15.43;8.70;;;31.80;94.60;;;;;;1971946;71;21150;-79
2021/10/08 06:48:09;;;;;;;12.50;8.45;;;31.80;95.10;;;;;;1941687;73;21513;-78
2021/10/08 06:50:44;;;;;;;11.63;7.55;;;32.00;93.60;;;;;;1985645;71;21154;-79
2021/10/08 06:53:14;;;;;;;10.82;7.90;;;31.80;93.30;;;;;;1972842;71;21260;-78
2021/10/08 06:55:47;;;;;;;10.85;8.38;;;31.60;93.90;;;;;;1982448;71;21607;-77
2021/10/08 06:58:17;;;;;;;9.68;8.13;;;31.60;95.00;;;;;;1969997;71;21171;-76
2021/10/08 07:00:52;;;;;;;14.00;8.28;;;31.80;95.60;;;;;;1985180;71;21162;-76
2021/10/08 07:03:21;;;;;;;9.05;7.78;;;31.60;95.90;;;;;;1984769;71;21039;-76
2021/10/08 07:05:53;;;;;;;8.55;7.47;;;31.60;93.70;;;;;;1989133;71;21189;-76
2021/10/08 07:08:23;;;;;;;9.75;8.00;;;31.80;93.70;;;;;;1942835;73;21169;-78
2021/10/08 07:10:55;;;;;;;11.20;8.18;;;31.80;93.90;;;;;;1940183;72;21124;-76
2021/10/08 07:13:25;;;;;;;12.25;7.83;;;31.70;93.70;;;;;;1983713;71;21112;-75
2021/10/08 07:15:59;;;;;;;10.53;7.70;;;31.60;94.10;;;;;;1991198;71;21077;-74
2021/10/08 07:18:36;;;;;;;9.80;7.95;;;31.80;94.80;;;;;;1979047;72;21620;-76
2021/10/08 07:21:06;;;;;;;8.98;7.80;;;31.80;95.10;;;;;;1978600;71;21644;-78
2021/10/08 07:23:40;;;;;;;8.55;7.65;;;31.70;95.20;;;;;;1988530;71;21057;-75
2021/10/08 07:26:09;;;;;;;8.75;7.47;;;31.90;96.40;;;;;;2000770;71;21246;-75
2021/10/08 07:28:41;;;;;;;10.75;7.65;;;31.70;95.70;;;;;;1976134;71;21103;-75
2021/10/08 07:31:12;;;;;;;9.48;8.35;;;31.80;95.90;;;;;;1976515;71;21076;-75
2021/10/08 07:33:43;;;;;;;8.75;7.85;;;31.70;96.60;;;;;;1998987;71;21633;-75
2021/10/08 07:36:14;;;;;;;11.35;8.40;;;31.70;95.70;;;;;;2002501;71;21104;-76
2021/10/08 07:38:45;;;;;;;10.82;7.50;;;31.70;95.20;;;;;;1984760;71;21056;-74
2021/10/08 07:41:16;;;;;;;20.77;9.33;;;31.70;94.60;;;;;;1990545;71;21113;-76
2021/10/08 07:43:47;;;;;;;9.38;8.10;;;31.50;94.70;;;;;;2002377;71;21101;-75
2021/10/08 07:46:18;;;;;;;9.60;8.60;;;31.60;94.80;;;;;;1972338;72;21151;-77
2021/10/08 07:48:49;;;;;;;9.78;8.28;;;31.40;95.60;;;;;;1956571;71;21159;-75
2021/10/08 07:51:20;;;;;;;11.00;8.43;;;31.60;96.40;;;;;;1941631;71;21555;-79
2021/10/08 07:53:51;;;;;;;9.20;7.97;;;31.40;97.20;;;;;;1974374;72;21048;-78
2021/10/08 07:56:22;;;;;;;12.68;7.83;;;31.30;95.70;;;;;;1975067;72;21552;-77
2021/10/08 07:58:56;;;;;;;11.57;8.25;;;31.50;96.40;;;;;;1973191;72;21492;-78
2021/10/08 08:01:27;;;;;;;12.45;8.45;;;31.40;95.90;;;;;;1973726;71;21500;-79
2021/10/08 08:03:58;;;;;;;12.10;8.85;;;31.50;96.40;;;;;;1989872;71;21135;-78
2021/10/08 08:06:28;;;;;;;10.50;8.05;;;31.30;95.90;;;;;;1994365;71;21091;-78
2021/10/08 08:09:00;;;;;;;15.45;8.35;;;31.30;96.30;;;;;;1989081;71;21183;-79
2021/10/08 08:11:31;;;;;;;9.85;8.10;;;31.40;96.50;;;;;;1986578;71;21659;-78
2021/10/08 08:14:04;;;;;;;11.25;8.35;;;31.30;95.70;;;;;;1962577;71;22410;-78
2021/10/08 08:16:35;;;;;;;11.20;8.58;;;31.30;95.50;;;;;;1968894;71;21243;-78
2021/10/08 08:19:07;;;;;;;9.70;8.05;;;31.30;95.80;;;;;;1951023;71;21086;-79
2021/10/08 08:21:38;;;;;;;11.08;8.03;;;31.40;95.00;;;;;;1992289;71;21556;-79
2021/10/08 08:24:09;;;;;;;10.15;8.15;;;31.30;94.30;;;;;;1959928;71;21607;-78
2021/10/08 08:26:40;;;;;;;10.70;8.13;;;31.50;94.30;;;;;;1972903;72;21112;-79
2021/10/08 08:29:11;;;;;;;12.53;8.60;;;31.50;94.80;;;;;;1974072;71;21759;-78
2021/10/08 08:31:42;;;;;;;9.90;8.18;;;31.60;94.80;;;;;;1982622;71;21088;-77
2021/10/08 08:34:13;;;;;;;9.23;8.25;;;31.40;94.80;;;;;;1986726;71;21576;-76
2021/10/08 08:36:43;;;;;;;11.35;8.48;;;31.60;94.00;;;;;;1993365;71;21199;-78
2021/10/08 08:39:15;;;;;;;9.85;8.58;;;31.50;93.80;;;;;;1977172;71;21541;-78
2021/10/08 08:41:46;;;;;;;9.33;8.18;;;31.40;94.50;;;;;;1981487;71;21124;-79
2021/10/08 08:44:18;;;;;;;11.48;8.48;;;31.50;95.10;;;;;;1974426;71;21094;-79
2021/10/08 08:46:49;;;;;;;12.68;8.70;;;31.30;95.00;;;;;;1967117;71;21073;-80
2021/10/08 08:49:20;;;;;;;13.93;8.80;;;31.50;95.20;;;;;;1974677;71;21090;-78
2021/10/08 08:51:51;;;;;;;11.93;8.10;;;31.30;94.70;;;;;;1979632;71;21049;-79
2021/10/08 08:54:22;;;;;;;11.88;8.05;;;31.40;94.60;;;;;;1988497;71;21076;-78
2021/10/08 08:56:53;;;;;;;10.18;8.85;;;31.30;94.80;;;;;;2002292;71;21107;-79
2021/10/08 08:59:24;;;;;;;14.90;10.60;;;31.30;95.10;;;;;;2001654;71;21212;-78
2021/10/08 09:01:57;;;;;;;12.58;9.40;;;31.40;94.90;;;;;;1997796;71;21096;-78
2021/10/08 09:04:30;;;;;;;18.12;11.18;;;31.40;95.30;;;;;;1978250;71;21163;-80
2021/10/08 09:07:01;;;;;;;23.95;14.07;;;31.10;94.90;;;;;;1965499;72;21216;-78
2021/10/08 09:09:32;;;;;;;13.90;9.78;;;31.20;95.20;;;;;;1890799;73;21104;-77
2021/10/08 09:12:03;;;;;;;19.90;12.88;;;31.10;95.50;;;;;;1958524;71;21116;-77
2021/10/08 09:14:34;;;;;;;13.80;9.70;;;31.10;95.90;;;;;;1975511;71;21147;-77
2021/10/08 09:17:06;;;;;;;12.53;9.28;;;31.00;95.70;;;;;;1966927;71;21103;-78
2021/10/08 09:19:39;;;;;;;13.95;9.80;;;31.00;96.00;;;;;;2004956;71;21177;-77
2021/10/08 09:22:10;;;;;;;12.93;9.50;;;31.00;96.00;;;;;;1955971;71;21147;-78
2021/10/08 09:24:42;;;;;;;14.98;10.35;;;31.00;96.00;;;;;;1965047;72;21084;-79
2021/10/08 09:27:17;;;;;;;12.18;10.38;;;31.00;96.70;;;;;;1921790;74;21129;-78
2021/10/08 09:29:56;;;;;;;14.10;10.23;;;31.00;96.20;;;;;;1899430;74;21209;-77
2021/10/08 09:32:29;;;;;;;11.68;10.30;;;30.90;96.60;;;;;;1960708;72;21118;-79
2021/10/08 09:35:03;;;;;;;13.05;10.45;;;31.00;96.70;;;;;;1972273;71;22178;-78
2021/10/08 09:37:35;;;;;;;21.73;16.95;;;30.90;97.30;;;;;;1983953;71;21049;-77
2021/10/08 09:40:09;;;;;;;14.18;11.48;;;30.90;96.90;;;;;;1959633;71;21309;-78
2021/10/08 09:42:41;;;;;;;21.15;16.12;;;30.80;96.80;;;;;;1995790;71;21148;-78
2021/10/08 09:45:12;;;;;;;15.93;12.23;;;30.80;96.60;;;;;;1964698;71;21135;-78
2021/10/08 09:47:46;;;;;;;16.67;11.18;;;30.70;96.90;;;;;;1973504;71;21135;-78
2021/10/08 09:50:20;;;;;;;11.75;9.75;;;30.80;96.10;;;;;;2001565;71;21100;-79
2021/10/08 09:52:50;;;;;;;14.40;9.88;;;30.70;96.30;;;;;;1962978;71;21122;-77
2021/10/08 09:55:23;;;;;;;16.27;10.35;;;30.70;96.20;;;;;;1962405;73;21057;-78
2021/10/08 09:57:57;;;;;;;19.55;10.82;;;30.60;96.60;;;;;;1970845;71;21074;-78
2021/10/08 10:00:31;;;;;;;15.35;10.48;;;30.80;97.20;;;;;;2009148;71;21150;-78
2021/10/08 10:03:04;;;;;;;16.00;11.33;;;30.60;97.20;;;;;;1990965;71;21112;-77
2021/10/08 10:05:36;;;;;;;15.55;10.40;;;30.60;97.70;;;;;;1942036;72;21691;-78
2021/10/08 10:08:08;;;;;;;15.32;9.88;;;30.60;97.40;;;;;;1963666;71;21157;-79
2021/10/08 10:10:40;;;;;;;13.10;10.20;;;30.50;97.40;;;;;;1978321;71;21591;-74
2021/10/08 10:13:12;;;;;;;17.05;10.88;;;30.60;97.70;;;;;;1981130;71;21095;-74
2021/10/08 10:15:45;;;;;;;11.63;9.85;;;30.60;98.40;;;;;;1960346;71;21059;-74
2021/10/08 10:18:18;;;;;;;13.05;9.18;;;30.60;97.90;;;;;;1960984;71;21050;-74
2021/10/08 10:20:51;;;;;;;15.03;9.90;;;30.60;97.00;;;;;;1991814;71;21574;-74
2021/10/08 10:23:24;;;;;;;15.28;9.83;;;30.40;96.50;;;;;;1973954;72;21145;-74
2021/10/08 10:25:55;;;;;;;17.57;11.33;;;30.40;96.30;;;;;;2003889;71;21131;-74
2021/10/08 10:28:26;;;;;;;18.65;10.43;;;30.60;96.70;;;;;;1982083;71;21125;-76
2021/10/08 10:30:57;;;;;;;12.98;9.53;;;30.40;96.70;;;;;;1988178;71;21041;-75
2021/10/08 10:33:30;;;;;;;13.13;10.32;;;30.40;97.30;;;;;;2014705;71;21060;-75
2021/10/08 10:36:02;;;;;;;13.85;10.70;;;30.40;99.20;;;;;;2006926;71;21073;-76
2021/10/08 10:38:35;;;;;;;14.63;11.05;;;30.40;98.40;;;;;;1961831;72;21205;-75
2021/10/08 10:41:10;;;;;;;15.90;11.05;;;30.50;98.60;;;;;;1963450;72;21576;-75
2021/10/08 10:43:45;;;;;;;13.68;10.88;;;30.30;99.40;;;;;;1912483;74;21585;-74
2021/10/08 10:46:18;;;;;;;19.70;11.00;;;30.30;97.10;;;;;;2008082;71;21067;-75
2021/10/08 10:48:52;;;;;;;14.93;12.20;;;30.40;97.00;;;;;;2010166;71;21547;-75
2021/10/08 10:51:23;;;;;;;16.23;11.35;;;30.40;97.60;;;;;;2003319;71;21116;-75
2021/10/08 10:53:55;;;;;;;19.30;12.13;;;30.30;97.60;;;;;;1979260;71;21058;-76
2021/10/08 10:56:28;;;;;;;18.67;11.83;;;30.20;97.90;;;;;;1969784;71;21145;-75
2021/10/08 10:59:01;;;;;;;15.78;11.53;;;30.10;97.60;;;;;;1927635;72;21171;-74
2021/10/08 11:01:32;;;;;;;15.05;11.57;;;30.10;97.90;;;;;;1982462;71;21077;-75
2021/10/08 11:04:06;;;;;;;18.65;13.48;;;30.10;98.40;;;;;;1994677;71;21142;-75
2021/10/08 11:06:39;;;;;;;19.95;15.00;;;30.30;98.60;;;;;;1980111;72;21236;-74
2021/10/08 11:09:17;;;;;;;21.55;15.63;;;30.20;98.80;;;;;;1953942;71;21148;-74
2021/10/08 11:11:44;;;;;;;20.50;15.93;;;30.10;98.90;;;;;;1980130;71;21604;-74
2021/10/08 11:14:17;;;;;;;17.55;13.93;;;30.00;98.80;;;;;;1970237;71;21080;-75
2021/10/08 11:16:48;;;;;;;22.50;14.93;;;30.00;99.00;;;;;;1972837;72;21115;-75
2021/10/08 11:19:22;;;;;;;16.90;14.23;;;30.00;99.80;;;;;;2003672;71;21108;-75
2021/10/08 11:21:53;;;;;;;21.85;15.43;;;30.20;99.80;;;;;;1977496;71;21560;-74
2021/10/08 11:24:24;;;;;;;19.42;14.00;;;30.00;99.90;;;;;;1989963;72;21535;-74
2021/10/08 11:26:59;;;;;;;19.02;13.83;;;30.00;99.90;;;;;;1982454;71;21149;-74
2021/10/08 11:29:33;;;;;;;20.37;14.25;;;30.00;99.90;;;;;;1974698;72;21508;-74
2021/10/08 11:32:06;;;;;;;24.35;15.83;;;30.10;99.90;;;;;;1874531;75;21091;-74
2021/10/08 11:34:39;;;;;;;22.50;16.05;;;30.00;99.90;;;;;;1895346;74;21170;-75
2021/10/08 11:37:10;;;;;;;22.67;15.80;;;29.90;99.90;;;;;;1893585;75;21167;-74
2021/10/08 11:39:43;;;;;;;20.15;14.30;;;30.00;99.90;;;;;;1886578;74;21131;-75
2021/10/08 11:42:16;;;;;;;22.77;15.08;;;30.00;99.90;;;;;;1945248;71;21090;-74
2021/10/08 11:45:12;;;;;;;21.33;15.55;;;29.90;99.90;;;;;;1980056;72;21501;-75
2021/10/08 11:47:29;;;;;;;23.62;16.55;;;29.90;99.90;;;;;;1964802;71;21143;-76
2021/10/08 11:52:31;;;;;;;19.98;15.98;;;29.80;99.90;;;;;;1959958;71;21566;-76
2021/10/08 11:55:04;;;;;;;25.05;17.85;;;29.90;99.90;;;;;;1966591;71;21137;-75
2021/10/08 11:57:37;;;;;;;22.40;15.23;;;29.80;99.90;;;;;;1980697;71;21169;-75
2021/10/08 12:00:09;;;;;;;22.75;15.05;;;29.80;99.90;;;;;;1944303;72;21165;-75
2021/10/08 12:02:40;;;;;;;21.02;15.88;;;29.90;99.90;;;;;;1988917;71;21117;-74
2021/10/08 12:05:12;;;;;;;21.93;16.27;;;29.90;99.90;;;;;;1977309;71;21052;-76
2021/10/08 12:07:46;;;;;;;19.87;16.07;;;29.90;99.90;;;;;;1999045;71;21167;-76
2021/10/08 12:10:17;;;;;;;22.73;16.70;;;29.80;99.90;;;;;;2002589;71;21042;-75
2021/10/08 12:12:51;;;;;;;23.62;17.20;;;29.70;99.90;;;;;;1956859;72;21162;-76
2021/10/08 12:15:24;;;;;;;21.42;16.30;;;29.60;99.90;;;;;;1991246;71;21052;-76
2021/10/08 12:17:57;;;;;;;23.52;17.65;;;29.90;99.90;;;;;;1999042;71;21103;-75
2021/10/08 12:20:30;;;;;;;23.35;18.17;;;29.90;99.90;;;;;;1960749;72;21113;-75
2021/10/08 12:23:04;;;;;;;22.67;16.90;;;29.60;99.90;;;;;;1909680;73;21086;-75
2021/10/08 12:25:35;;;;;;;23.95;16.65;;;29.60;99.90;;;;;;1976629;72;21666;-74
2021/10/08 12:28:06;;;;;;;23.40;16.80;;;29.80;99.90;;;;;;1941305;73;21067;-75
2021/10/08 12:30:37;;;;;;;28.12;16.30;;;;;;;;;;1947576;72;21770;-75
2021/10/08 12:33:08;;;;;;;20.40;16.93;;;29.60;99.90;;;;;;1942750;72;21200;-75
2021/10/08 12:35:39;;;;;;;22.22;16.32;;;;;;;;;;1934797;74;21508;-75
2021/10/08 12:38:10;;;;;;;23.98;17.87;;;29.50;97.90;;;;;;1909190;72;21163;-74
2021/10/08 12:40:42;;;;;;;25.02;18.00;;;29.50;98.40;;;;;;1920209;74;21136;-74
2021/10/08 12:43:15;;;;;;;24.57;19.30;;;29.50;98.30;;;;;;1923543;74;21142;-75
2021/10/08 12:45:46;;;;;;;29.02;22.75;;;29.50;98.50;;;;;;1904518;74;21116;-74
2021/10/08 12:48:19;;;;;;;25.05;20.88;;;29.50;98.50;;;;;;1923482;74;21197;-75
2021/10/08 12:50:51;;;;;;;41.70;28.42;;;29.40;98.60;;;;;;1999179;71;21663;-76
2021/10/08 12:53:24;;;;;;;37.73;29.42;;;29.40;98.70;;;;;;1947786;72;21157;-76
2021/10/08 12:55:55;;;;;;;42.15;31.52;;;29.40;98.70;;;;;;1929437;74;21100;-73
2021/10/08 12:58:26;;;;;;;36.35;29.10;;;29.40;98.90;;;;;;1966627;72;21120;-74
2021/10/08 13:01:00;;;;;;;32.13;23.67;;;29.40;98.70;;;;;;1939675;72;21057;-75